Nearby METAR Reports

 

KDWH - Houston/Dw Hooks, Texas, USA
Distance from station: WNW 3mi, 6km
Updated: 04/19/2024 6:53am
Mist, Few clouds
Mist, Few clouds
 Wind from calm
Wind: Calm
Temperature: 70°F, 21°C
Dew Point: 66°F, 19°C
Humidity: 88%
Barometer: 29.98 inHg, 1015.2 hPa
Summary: Mist
Clouds: Few Clouds
Visibility: 5 miles, 8 km
Cloud details: Few Clouds 1700 ft
2024/04/19 11:53 KDWH 191153Z 00000KT 5SM BR FEW017 21/19 A2998 RMK AO2 SLP150 T02060194 10228 20194 53003
KIAH - Houston/Intnl, Texas, USA
Distance from station: ESE 9mi, 14km
Updated: 04/19/2024 6:53am
Mist, Mostly cloudy
Mist, Mostly cloudy
 Wind from N
Wind: N 3 mph, 6 km/h
Temperature: 70°F, 21°C
Dew Point: 68°F, 20°C
Humidity: 94%
Barometer: 29.98 inHg, 1015.2 hPa
Summary: Mist
Clouds: Mostly cloudy
Visibility: 4 miles, 6 km
Cloud details: Partly cloudy 2800 ft
Mostly cloudy 25000 ft
2024/04/19 11:53 KIAH 191153Z 35003KT 4SM BR SCT028 BKN250 21/20 A2998 RMK AO2 SLP153 T02060200 10233 20206 53004
 
KCXO - Conroe, Texas, USA
Distance from station: NNE 21mi, 34km
Updated: 04/19/2024 6:53am
Fog, Overcast
Fog, Overcast
 Wind from calm
Wind: Calm
Temperature: 70°F, 21°C
Dew Point: 70°F, 21°C
Humidity: 100%
Barometer: 29.99 inHg, 1015.6 hPa
Summary: Fog
Clouds: Overcast
Visibility: 1/4 mile, 0.4 km
Cloud details: Overcast 200 ft
2024/04/19 11:53 KCXO 191153Z 00000KT 1/4SM FG VV002 21/21 A2999 RMK AO2 SLP151 T02060206 10211 20194 53005
KMCJ - Houston/Univ, Texas, USA
Distance from station: SSE 24mi, 39km
Updated: 04/19/2024 6:55am
Mist
Mist
 Wind from varies
Wind: varies 5 mph, 7 km/h
Temperature: 73°F, 23°C
Dew Point: 73°F, 23°C
Humidity: 100%
Barometer: 29.96 inHg, 1014.6 hPa
Summary: Mist
Visibility: 3 miles, 5 km
2024/04/19 11:55 KMCJ 191155Z AUTO VRB04KT 3SM BR 23/23 A2996 RMK A01
 
KTME - Houston Exec, Texas, USA
Distance from station: SW 30mi, 48km
Updated: 04/19/2024 6:55am
Mist, Mostly cloudy
Mist, Mostly cloudy
 Wind from ENE
Wind: ENE 3 mph, 6 km/h
Temperature: 70°F, 21°C
Dew Point: 70°F, 21°C
Humidity: 100%
Barometer: 29.98 inHg, 1015.2 hPa
Summary: Mist
Clouds: Mostly cloudy
Visibility: 2 1/2 miles, 4 km
Cloud details: Mostly cloudy 300 ft
2024/04/19 11:55 KTME 191155Z AUTO 07003KT 2 1/2SM BR BKN003 21/21 A2998 RMK AO2
KHOU - Houston/Hobby, Texas, USA
Distance from station: SSE 32mi, 51km
Updated: 04/19/2024 6:52am
Mostly cloudy
Mostly cloudy
 Wind from SSE
Wind: SSE 5 mph, 7 km/h
Temperature: 73°F, 23°C
Dew Point: 72°F, 22°C
Humidity: 94%
Barometer: 29.96 inHg, 1014.6 hPa
Clouds: Mostly cloudy
Visibility: 7 miles, 11 km
Cloud details: Partly cloudy 1300 ft
Partly cloudy 2100 ft
Mostly cloudy 2800 ft
2024/04/19 11:52 KHOU 191152Z 15004KT 7SM SCT013 SCT021 BKN028 23/22 A2996 RMK AO2 SLP151 T02330222 10250 20233 53002
 
KSGR - Houston/Sugar La, Texas, USA
Distance from station: SSW 32mi, 51km
Updated: 04/19/2024 7:03am
Mist, Overcast
Mist, Overcast
 Wind from E
Wind: E 5 mph, 7 km/h
Temperature: 73°F, 23°C
Dew Point: 73°F, 23°C
Humidity: 100%
Barometer: 29.96 inHg, 1014.6 hPa
Summary: Mist
Clouds: Overcast
Visibility: 5 miles, 8 km
Cloud details: Mostly cloudy 600 ft
Overcast 1200 ft
2024/04/19 12:03 KSGR 191203Z 10004KT 5SM BR BKN006 OVC012 23/23 A2996 RMK AO2 T02330228
K6R3 - Cleveland Muni, Texas, USA
Distance from station: NE 36mi, 58km
Updated: 04/19/2024 6:55am
Fog, Overcast
Fog, Overcast
 Wind from calm
Wind: Calm
Temperature: 72°F, 22°C
Dew Point: 72°F, 22°C
Humidity: 100%
Barometer: 30.00 inHg, 1015.9 hPa
Summary: Fog
Clouds: Overcast
Visibility: 1/4 mile, 0.4 km
Cloud details: Overcast 200 ft
2024/04/19 11:55 K6R3 191155Z AUTO 00000KT 1/4SM FG OVC002 22/22 A3000 RMK AO2 T02210215 10222 20205
 
KAXH - Houston/Southwst, Texas, USA
Distance from station: S 37mi, 60km
Updated: 04/19/2024 6:55am
Mist, Overcast
Mist, Overcast
 Wind from calm
Wind: Calm
Temperature: 73°F, 23°C
Dew Point: 72°F, 22°C
Humidity: 94%
Barometer: 29.98 inHg, 1015.2 hPa
Summary: Mist
Clouds: Overcast
Visibility: 3 miles, 5 km
Cloud details: Mostly cloudy 500 ft
Overcast 800 ft
2024/04/19 11:55 KAXH 191155Z AUTO 00000KT 3SM BR BKN005 OVC008 23/22 A2998 RMK AO2 T02260218 10234 20222
KEFD - Houston/Ellingto, Texas, USA
Distance from station: SSE 37mi, 60km
Updated: 04/19/2024 6:54am
Mist, Overcast
Mist, Overcast
 Wind from calm
Wind: Calm
Temperature: 73°F, 23°C
Dew Point: 72°F, 22°C
Humidity: 94%
Barometer: 29.97 inHg, 1014.9 hPa
Summary: Mist
Clouds: Overcast
Visibility: 4 miles, 6 km
Cloud details: Partly cloudy 800 ft
Mostly cloudy 1200 ft
Overcast 1800 ft
2024/04/19 11:54 KEFD 191154Z 00000KT 4SM BR SCT008 BKN012 OVC018 23/22 A2997
 
KLVJ - Houston, Texas, USA
Distance from station: SSE 40mi, 64km
Updated: 04/19/2024 6:53am
Mist, Overcast
Mist, Overcast
 Wind from calm
Wind: Calm
Temperature: 73°F, 23°C
Dew Point: 72°F, 22°C
Humidity: 94%
Barometer: 29.98 inHg, 1015.2 hPa
Summary: Mist
Clouds: Overcast
Visibility: 5 miles, 8 km
Cloud details: Mostly cloudy 900 ft
Overcast 1500 ft
2024/04/19 11:53 KLVJ 191153Z AUTO 00000KT 5SM BR BKN009 OVC015 23/22 A2998 RMK AO2 SLP152 T02330222 10239 20233 53004
KUTS - Huntsville, Texas, USA
Distance from station: N 48mi, 78km
Updated: 04/19/2024 6:53am
Mist, Overcast
Mist, Overcast
 Wind from calm
Wind: Calm
Temperature: 70°F, 21°C
Dew Point: 70°F, 21°C
Humidity: 100%
Barometer: 29.99 inHg, 1015.6 hPa
Summary: Mist
Clouds: Overcast
Visibility: 1 3/4 miles, 2.8 km
Cloud details: Overcast 300 ft
2024/04/19 11:53 KUTS 191153Z AUTO 00000KT 1 3/4SM BR OVC003 21/21 A2999 RMK AO2 SLP152 T02060206 10217 20200 53012